Enter the Airport ICAO Code

Search by Airport or City

Current Weather

ESSA | Stockholm Arlanda Airport

Stockholm, Sweden

Last Update 11 Minutes Ago

Mostly Cloudy Sky

Temperature of 11 ºC

Moderate to Strong Winds from SouthWest

Temperature

11 ºC

Dew Point Temperature

05 ºC

Relative Humidity

66.57 %

Wind Direction

SouthWest (240º, Without Significant Variations)

Wind Velocity

31 km/h (17 kt)

Gusts

None

Visibility

Greater than 10 Kilometers

Sea Level Pressure

0980 hPa (Hectopascals)

Layers of Clouds

60% to 90% of Sky Covered from 1067 mts (3500 ft) Above Ground Level.

METAR ESSA 202250Z 24017KT 9999 BKN035 11/05 Q0980 NOSIG

Weather Forecast

ESSA | Stockholm Arlanda Airport

Stockholm, Sweden

Forecast valid for the next 19 Hours

From now on it is expected:

Mostly Cloudy Sky

Moderate Winds from SouthWest

From now on it is expected 1 hour with intermittent periods of:

Moderate to Strong Winds from West with Gusts

In 14 hours it is expected the begining of 5 hours with intermittent periods of:

Rain

Maximum Temperature

No Data

Minimum Temperature

No Data

TAF ESSA 201935Z 2019/2118 23012KT 9999 BKN035 TEMPO 2019/2024 25018G28KT PROB40 2108/2112 BKN014CB TEMPO 2113/2118 4000 RA BKN012